Time;durP1;ratioP1;P1;durP2;ratioP2;P2;SDS_P1;SDS_P2;PMS_P1;PMS_P2;Temp;Humidity;BMP_temperature;BMP_pressure;BME280_temperature;BME280_humidity;BME280_pressure;Samples;Min_cycle;Max_cycle;Signal;HPM_P1;HPM_P2
2022/08/11 00:01:18;;;;;;;4.95;2.55;;;19.50;99.70;;;;;;5076332;28;20072;-47
2022/08/11 00:03:59;;;;;;;6.15;2.92;;;19.50;99.90;;;;;;5075085;28;20040;-49
2022/08/11 00:06:38;;;;;;;2.47;2.28;;;19.50;99.90;;;;;;5075389;28;20064;-47
2022/08/11 00:09:07;;;;;;;5.13;2.30;;;19.50;99.90;;;;;;5071952;28;20037;-45
2022/08/11 00:11:39;;;;;;;3.25;2.47;;;19.40;99.90;;;;;;5089224;28;20574;-45
2022/08/11 00:14:18;;;;;;;2.25;1.98;;;19.40;99.80;;;;;;5091602;28;20066;-47
2022/08/11 00:16:56;;;;;;;3.50;2.42;;;19.30;99.40;;;;;;5073374;28;20506;-47
2022/08/11 00:19:25;;;;;;;5.40;2.63;;;19.20;99.00;;;;;;5077464;28;20044;-51
2022/08/11 00:21:52;;;;;;;2.60;2.30;;;19.10;98.70;;;;;;5080726;28;20032;-47
2022/08/11 00:24:18;;;;;;;4.35;2.30;;;19.00;98.60;;;;;;5091582;28;20127;-45
2022/08/11 00:26:52;;;;;;;2.72;2.45;;;19.00;98.70;;;;;;5073875;28;20450;-46
2022/08/11 00:29:19;;;;;;;4.50;2.40;;;18.90;98.80;;;;;;5053904;28;20124;-46
2022/08/11 00:31:56;;;;;;;2.42;2.22;;;18.80;98.70;;;;;;5086497;28;20036;-45
2022/08/11 00:34:27;;;;;;;2.47;2.28;;;18.70;98.70;;;;;;5073797;28;20044;-47
2022/08/11 00:37:00;;;;;;;3.15;2.60;;;18.60;98.30;;;;;;5055526;28;20044;-46
2022/08/11 00:39:26;;;;;;;2.60;2.40;;;18.40;98.20;;;;;;5071719;28;20101;-47
2022/08/11 00:42:01;;;;;;;3.33;2.63;;;18.30;98.90;;;;;;5087777;28;20119;-47
2022/08/11 00:45:00;;;;;;;6.35;3.20;;;18.30;99.40;;;;;;5085513;28;20083;-47
2022/08/11 00:47:35;;;;;;;2.35;2.15;;;18.40;99.90;;;;;;5070840;28;20033;-48
2022/08/11 00:50:38;;;;;;;2.90;2.70;;;18.40;99.90;;;;;;5071337;28;20072;-48
2022/08/11 00:53:30;;;;;;;3.63;3.03;;;18.40;99.90;;;;;;5084352;28;20079;-47
2022/08/11 00:56:01;;;;;;;3.28;2.95;;;18.30;99.90;;;;;;5077658;28;20044;-47
2022/08/11 00:59:03;;;;;;;4.50;3.10;;;18.30;99.90;;;;;;5091460;28;20048;-47
2022/08/11 01:02:21;;;;;;;2.63;2.42;;;18.30;99.90;;;;;;5089297;28;20051;-47
2022/08/11 01:05:27;;;;;;;3.23;3.00;;;18.20;99.70;;;;;;5015043;28;20057;-48
2022/08/11 01:08:24;;;;;;;17.25;3.47;;;18.10;99.90;;;;;;5070613;28;20067;-46
2022/08/11 01:11:12;;;;;;;4.78;3.05;;;18.00;99.60;;;;;;5074523;28;20040;-46
2022/08/11 01:13:59;;;;;;;4.55;3.45;;;18.00;99.80;;;;;;5084810;28;20044;-47
2022/08/11 01:16:43;;;;;;;3.00;2.80;;;18.00;99.90;;;;;;5078484;28;20111;-48
2022/08/11 01:19:30;;;;;;;2.95;2.75;;;17.90;99.90;;;;;;5090932;28;20133;-47
2022/08/11 01:22:30;;;;;;;3.65;2.97;;;18.00;99.90;;;;;;5078276;28;20512;-45
2022/08/11 01:25:34;;;;;;;2.65;2.45;;;17.90;99.90;;;;;;5070880;28;20494;-47
2022/08/11 01:28:30;;;;;;;4.13;2.90;;;17.80;99.90;;;;;;5070767;28;20374;-47
2022/08/11 01:31:19;;;;;;;20.23;3.57;;;17.70;99.90;;;;;;5056081;28;20043;-46
2022/08/11 01:34:22;;;;;;;8.57;3.60;;;17.60;99.90;;;;;;5038638;28;20414;-47
2022/08/11 01:37:12;;;;;;;8.77;3.15;;;17.60;99.90;;;;;;5080825;28;20664;-47
2022/08/11 01:40:15;;;;;;;7.18;3.38;;;17.50;99.90;;;;;;5090065;28;20501;-46
2022/08/11 01:46:19;;;;;;;5.40;2.80;;;17.40;99.90;;;;;;5071706;28;20045;-47
2022/08/11 01:49:13;;;;;;;7.78;3.28;;;17.30;99.90;;;;;;5090656;28;20035;-47
2022/08/11 01:52:00;;;;;;;13.18;4.15;;;17.30;99.90;;;;;;5084101;28;20036;-46
2022/08/11 01:54:29;;;;;;;;;;;17.20;99.90;;;;;;5070772;28;20028;-47
2022/08/11 01:57:15;;;;;;;5.28;1.83;;;17.10;99.90;;;;;;5075964;28;19920;-47
2022/08/11 01:59:48;;;;;;;6.15;2.35;;;16.90;99.90;;;;;;5070584;28;20409;-47
2022/08/11 02:02:53;;;;;;;15.95;2.80;;;16.80;99.90;;;;;;5079478;28;20382;-46
2022/08/11 02:05:40;;;;;;;3.88;2.40;;;16.80;99.90;;;;;;4988542;28;20491;-47
2022/08/11 02:08:09;;;;;;;;;;;16.70;99.90;;;;;;4972563;28;20118;-47
2022/08/11 02:11:31;;;;;;;4.93;2.20;;;16.70;99.90;;;;;;4968695;28;20233;-47
2022/08/11 02:14:32;;;;;;;2.50;1.70;;;16.70;99.90;;;;;;4968804;28;20700;-46
2022/08/11 02:17:20;;;;;;;2.30;1.90;;;16.70;99.90;;;;;;4966467;28;20050;-45
2022/08/11 02:26:02;;;;;;;1.70;1.50;;;16.60;99.90;;;;;;4949318;29;20047;-47
2022/08/11 02:28:49;;;;;;;3.20;2.15;;;16.50;99.90;;;;;;4964954;28;20622;-44
2022/08/11 02:34:17;;;;;;;3.30;2.15;;;16.30;99.90;;;;;;4949036;29;19954;-46
2022/08/11 02:37:35;;;;;;;1.70;1.42;;;16.20;99.90;;;;;;4949253;28;20043;-46
2022/08/11 02:40:23;;;;;;;2.17;1.98;;;16.20;99.90;;;;;;4954768;28;20539;-47
2022/08/11 02:43:02;;;;;;;3.67;2.35;;;16.10;99.90;;;;;;5007330;28;20115;-47
2022/08/11 02:45:52;;;;;;;3.22;2.92;;;16.20;99.90;;;;;;5007360;28;20215;-45
2022/08/11 02:51:59;;;;;;;7.95;3.80;;;16.00;99.90;;;;;;5009139;28;20330;-46
2022/08/11 02:54:45;;;;;;;4.53;3.90;;;16.00;99.90;;;;;;5021664;28;20525;-46
2022/08/11 02:57:29;;;;;;;4.88;4.05;;;16.00;99.90;;;;;;5070636;28;20049;-47
2022/08/11 03:00:11;;;;;;;6.75;4.70;;;16.10;99.90;;;;;;5069602;28;20110;-47
2022/08/11 03:02:42;;;;;;;5.78;3.55;;;16.10;99.90;;;;;;5074485;28;20050;-46
2022/08/11 03:05:16;;;;;;;3.22;2.97;;;16.20;99.90;;;;;;5089681;28;20089;-47
2022/08/11 03:07:59;;;;;;;4.32;2.25;;;16.20;99.90;;;;;;5087947;28;20047;-48
2022/08/11 03:10:44;;;;;;;2.40;2.20;;;16.20;99.90;;;;;;5089584;28;20036;-46
2022/08/11 03:16:46;;;;;;;2.17;1.95;;;16.10;99.90;;;;;;5069183;28;20049;-45
2022/08/11 03:19:17;;;;;;;3.10;2.17;;;16.10;99.90;;;;;;5087989;28;20474;-46
2022/08/11 03:22:04;;;;;;;2.17;2.08;;;16.00;99.90;;;;;;5093091;28;20039;-47
2022/08/11 03:24:52;;;;;;;2.08;1.98;;;16.00;99.90;;;;;;5074088;28;20421;-46
2022/08/11 03:27:45;;;;;;;2.40;2.25;;;15.90;99.90;;;;;;5072602;28;20037;-46
2022/08/11 03:30:25;;;;;;;3.50;2.15;;;15.80;99.90;;;;;;5073099;28;20028;-46
2022/08/11 03:36:19;;;;;;;3.00;2.42;;;15.70;99.90;;;;;;5092248;28;20064;-47
2022/08/11 03:38:55;;;;;;;1.92;1.63;;;15.70;99.90;;;;;;5081905;28;20101;-46
2022/08/11 03:41:51;;;;;;;2.30;2.20;;;15.70;99.90;;;;;;5072479;28;20036;-45
2022/08/11 03:44:26;;;;;;;3.10;2.08;;;15.70;99.90;;;;;;5086743;28;20044;-47
2022/08/11 03:47:10;;;;;;;3.08;2.85;;;15.70;99.90;;;;;;5092528;28;20043;-46
2022/08/11 03:49:59;;;;;;;3.22;2.15;;;15.70;99.90;;;;;;5091239;28;20036;-47
2022/08/11 03:53:06;;;;;;;9.13;4.18;;;15.70;99.90;;;;;;5092617;28;20421;-45
2022/08/11 03:56:17;;;;;;;4.78;4.03;;;15.70;99.90;;;;;;5023108;28;20060;-45
2022/08/11 03:58:58;;;;;;;6.68;3.78;;;15.70;99.90;;;;;;4978648;28;20121;-46
2022/08/11 04:01:44;;;;;;;2.92;2.60;;;15.60;99.90;;;;;;4990587;28;20053;-46
2022/08/11 04:05:01;;;;;;;4.03;3.13;;;15.60;99.90;;;;;;4978799;28;20054;-48
2022/08/11 04:08:00;;;;;;;3.85;2.75;;;15.60;99.90;;;;;;4970441;28;20049;-47
2022/08/11 04:10:53;;;;;;;3.17;2.97;;;15.60;99.90;;;;;;4990240;28;20048;-46
2022/08/11 04:13:50;;;;;;;5.13;3.03;;;15.50;99.90;;;;;;4986651;28;20057;-46
2022/08/11 04:16:39;;;;;;;1.63;0.82;;;15.40;99.90;;;;;;4970551;28;20504;-46
2022/08/11 04:20:01;;;;;;;2.35;1.73;;;15.40;99.90;;;;;;4971546;28;20039;-45
2022/08/11 04:22:48;;;;;;;6.03;3.88;;;15.30;99.90;;;;;;4961129;28;20054;-46
2022/08/11 04:25:23;;;;;;;5.80;3.05;;;15.30;99.90;;;;;;4986330;28;20041;-48
2022/08/11 04:28:18;;;;;;;3.58;3.28;;;15.30;99.90;;;;;;4989716;28;20064;-45
2022/08/11 04:31:09;;;;;;;4.18;3.75;;;15.30;99.90;;;;;;4988656;28;20035;-47
2022/08/11 04:33:42;;;;;;;6.13;4.20;;;15.30;99.90;;;;;;4987311;28;20131;-44
2022/08/11 04:37:31;;;;;;;4.43;3.92;;;15.30;99.90;;;;;;5091635;28;20213;-47
2022/08/11 04:39:39;;;;;;;6.80;4.95;;;15.30;99.90;;;;;;5088865;28;20468;-45
2022/08/11 04:45:32;;;;;;;9.20;5.20;;;15.50;99.90;;;;;;5083735;28;20044;-45
2022/08/11 05:03:10;;;;;;;7.28;6.57;;;15.80;99.90;;;;;;5090678;28;20048;-46
2022/08/11 05:06:11;;;;;;;7.28;6.38;;;15.90;99.90;;;;;;5088934;28;20032;-48
2022/08/11 05:08:49;;;;;;;11.57;6.60;;;15.90;99.90;;;;;;5091182;28;20043;-46
2022/08/11 05:11:30;;;;;;;9.00;6.40;;;16.00;99.90;;;;;;5072032;28;20041;-46
2022/08/11 05:37:18;;;;;;;12.80;8.82;;;16.80;99.90;;;;;;5070311;28;20087;-49
2022/08/11 05:56:49;;;;;;;8.85;8.02;;;17.80;99.90;;;;;;5086088;28;20400;-52
2022/08/11 05:59:17;;;;;;;88.05;12.18;;;17.90;99.90;;;;;;5090548;28;20435;-50
2022/08/11 06:01:43;;;;;;;10.15;8.32;;;18.00;99.90;;;;;;5088339;28;20413;-45
2022/08/11 06:04:19;;;;;;;15.68;7.57;;;18.10;99.90;;;;;;5089565;28;20048;-51
2022/08/11 06:07:09;;;;;;;14.07;8.13;;;18.20;99.90;;;;;;5073892;28;20035;-50
2022/08/11 06:09:43;;;;;;;7.75;6.95;;;18.30;99.90;;;;;;5070087;28;20068;-49
2022/08/11 06:12:16;;;;;;;7.82;7.10;;;18.40;99.90;;;;;;5075387;28;20083;-49
2022/08/11 06:14:44;;;;;;;10.10;6.90;;;18.50;99.90;;;;;;5089792;28;20096;-49
2022/08/11 06:17:12;;;;;;;25.77;7.47;;;18.60;99.90;;;;;;5071021;28;20044;-51
2022/08/11 06:19:40;;;;;;;7.18;6.45;;;18.70;99.90;;;;;;5081179;28;20028;-48
2022/08/11 06:22:10;;;;;;;8.45;7.60;;;18.80;99.90;;;;;;5071070;28;20040;-46
2022/08/11 06:24:40;;;;;;;17.80;6.70;;;18.80;99.90;;;;;;5076897;28;20044;-45
2022/08/11 06:27:06;;;;;;;25.77;6.93;;;18.90;99.90;;;;;;5079911;28;20036;-48
2022/08/11 06:29:40;;;;;;;7.35;6.32;;;19.00;99.90;;;;;;5059632;28;20055;-51
2022/08/11 06:32:10;;;;;;;7.18;6.53;;;19.10;99.90;;;;;;5085353;28;20044;-47
2022/08/11 06:35:13;;;;;;;53.53;8.63;;;19.20;99.90;;;;;;5062873;28;20517;-47
2022/08/11 06:38:00;;;;;;;7.40;5.88;;;19.30;99.90;;;;;;5089678;28;20078;-46
2022/08/11 06:40:39;;;;;;;6.43;5.78;;;19.40;99.90;;;;;;5071682;28;20040;-47
2022/08/11 06:43:20;;;;;;;6.40;5.22;;;19.60;99.90;;;;;;5069221;28;20047;-47
2022/08/11 06:46:04;;;;;;;10.05;5.97;;;19.70;99.90;;;;;;5089264;28;20434;-47
2022/08/11 06:48:34;;;;;;;8.02;5.68;;;19.80;99.90;;;;;;5088980;28;20115;-46
2022/08/11 06:51:12;;;;;;;7.00;6.38;;;20.00;99.90;;;;;;5089844;28;20075;-46
2022/08/11 06:53:55;;;;;;;6.25;5.30;;;20.10;99.90;;;;;;5076338;28;20045;-47
2022/08/11 07:02:45;;;;;;;8.10;5.00;;;20.40;99.90;;;;;;5073560;28;20044;-47
2022/08/11 07:05:25;;;;;;;11.38;4.85;;;20.50;99.90;;;;;;5073566;28;20451;-48
2022/08/11 07:16:49;;;;;;;5.82;4.30;;;21.10;99.90;;;;;;5072923;28;20064;-49
2022/08/11 07:30:45;;;;;;;4.95;2.65;;;21.70;99.70;;;;;;5088999;28;20044;-52
2022/08/11 07:33:18;;;;;;;7.07;3.22;;;21.80;99.30;;;;;;5092582;28;20036;-50
2022/08/11 07:35:50;;;;;;;4.43;3.35;;;21.90;99.20;;;;;;5083944;28;20047;-53
2022/08/11 07:38:41;;;;;;;5.75;3.33;;;22.10;99.30;;;;;;5072841;28;20063;-52
2022/08/11 07:41:12;;;;;;;6.00;3.55;;;22.20;99.00;;;;;;5072980;28;20059;-53
2022/08/11 07:43:40;;;;;;;7.32;3.05;;;22.20;98.80;;;;;;5072144;28;20094;-50
2022/08/11 07:54:21;;;;;;;14.70;12.20;;;22.80;98.00;;;;;;5091918;28;20052;-52
2022/08/11 07:56:48;;;;;;;8.52;2.55;;;22.90;97.50;;;;;;5058927;28;20417;-48
2022/08/11 08:18:35;;;;;;;4.57;0.80;;;24.00;95.70;;;;;;5071505;28;20502;-48
2022/08/11 08:21:13;;;;;;;3.65;1.38;;;24.10;95.10;;;;;;5072657;28;20037;-49
2022/08/11 08:23:41;;;;;;;6.60;0.85;;;24.20;94.80;;;;;;5070905;28;20040;-47
2022/08/11 08:26:57;;;;;;;2.30;0.80;;;24.30;94.50;;;;;;5076958;28;20089;-51
2022/08/11 08:31:42;;;;;;;7.18;1.05;;;24.50;93.70;;;;;;5090028;28;20040;-49
2022/08/11 08:34:09;;;;;;;9.23;1.13;;;24.60;93.70;;;;;;5091513;28;20051;-48
2022/08/11 08:36:35;;;;;;;4.55;0.60;;;24.70;92.90;;;;;;5083342;28;20043;-47
2022/08/11 08:39:01;;;;;;;1.88;0.50;;;24.80;93.00;;;;;;5072786;28;20469;-52
2022/08/11 08:41:28;;;;;;;4.18;0.60;;;24.90;92.60;;;;;;5076837;28;20074;-51
2022/08/11 08:43:58;;;;;;;6.38;0.70;;;25.00;92.20;;;;;;5080206;28;20116;-46
2022/08/11 08:46:33;;;;;;;4.20;0.50;;;25.10;91.80;;;;;;5080032;28;20459;-47
2022/08/11 08:49:00;;;;;;;3.97;0.60;;;25.20;91.50;;;;;;5080628;28;20081;-51
2022/08/11 08:51:33;;;;;;;0.68;0.35;;;25.40;90.90;;;;;;5080650;28;20040;-50
2022/08/11 08:54:12;;;;;;;2.83;0.60;;;25.50;90.70;;;;;;5080639;28;20044;-47
2022/08/11 08:56:40;;;;;;;2.95;0.45;;;25.60;88.50;;;;;;5081023;28;20485;-51
2022/08/11 08:59:06;;;;;;;3.22;0.45;;;25.70;89.30;;;;;;5079528;28;20040;-46
2022/08/11 09:01:56;;;;;;;1.52;0.52;;;25.80;86.20;;;;;;5075275;28;20043;-52
2022/08/11 09:04:22;;;;;;;7.03;0.47;;;25.90;86.60;;;;;;5080511;28;20485;-47
2022/08/11 09:06:49;;;;;;;4.90;0.50;;;26.00;86.20;;;;;;5076260;28;20040;-48
2022/08/11 09:09:15;;;;;;;3.85;0.30;;;26.10;86.80;;;;;;5081092;28;20107;-46
2022/08/11 09:11:54;;;;;;;2.45;0.50;;;26.20;84.80;;;;;;5078212;28;20079;-47
2022/08/11 09:15:00;;;;;;;3.22;0.70;;;26.40;84.70;;;;;;5078988;28;20123;-51
2022/08/11 09:17:50;;;;;;;9.43;0.70;;;26.50;82.40;;;;;;5076096;28;20040;-46
2022/08/11 09:20:25;;;;;;;3.95;0.30;;;26.60;82.90;;;;;;5085463;28;20123;-47
2022/08/11 09:28:28;;;;;;;2.65;0.45;;;26.90;78.80;;;;;;5053679;28;20067;-46
2022/08/11 09:30:55;;;;;;;3.97;0.60;;;27.00;78.90;;;;;;5072472;28;20040;-47
2022/08/11 09:33:23;;;;;;;5.75;0.60;;;27.10;75.90;;;;;;5076131;28;20051;-47
2022/08/11 09:35:51;;;;;;;1.25;0.32;;;27.20;75.70;;;;;;5077741;28;20055;-47
2022/08/11 09:41:06;;;;;;;1.98;0.32;;;27.40;72.50;;;;;;5077316;28;20428;-47
2022/08/11 09:46:26;;;;;;;3.38;0.30;;;27.50;70.70;;;;;;5078329;28;20048;-47
2022/08/11 09:48:53;;;;;;;28.83;1.40;;;27.60;69.20;;;;;;5078013;28;20039;-47
2022/08/11 09:51:20;;;;;;;30.17;1.10;;;27.70;69.60;;;;;;5038200;28;20820;-47
2022/08/11 09:53:48;;;;;;;4.93;0.38;;;27.70;70.00;;;;;;5086050;28;20417;-49
2022/08/11 09:59:08;;;;;;;5.10;0.40;;;27.90;67.00;;;;;;5073028;28;20043;-47
2022/08/11 10:01:42;;;;;;;90.72;7.72;;;28.00;67.10;;;;;;5075776;28;20075;-48
2022/08/11 10:04:18;;;;;;;5.30;0.40;;;28.00;67.70;;;;;;5087419;28;20032;-47
2022/08/11 10:07:05;;;;;;;4.00;0.40;;;28.10;67.60;;;;;;5088299;28;20469;-47
2022/08/11 10:09:49;;;;;;;4.65;0.40;;;28.10;66.30;;;;;;5051403;28;20048;-50
2022/08/11 10:12:47;;;;;;;25.70;0.65;;;28.10;66.60;;;;;;5069525;28;20040;-48
2022/08/11 10:20:57;;;;;;;176.63;10.25;;;28.40;65.40;;;;;;4985728;28;20046;-45
2022/08/11 10:28:53;;;;;;;0.60;0.50;;;28.50;63.30;;;;;;4989520;28;20505;-46
2022/08/11 10:34:07;;;;;;;2.20;0.55;;;28.60;63.60;;;;;;4988669;28;20047;-47
2022/08/11 10:36:49;;;;;;;3.83;0.40;;;28.60;61.60;;;;;;4992682;28;20074;-47
2022/08/11 10:39:17;;;;;;;2.17;0.30;;;28.70;61.80;;;;;;4986292;28;20152;-46
2022/08/11 10:44:51;;;;;;;1.00;0.40;;;28.80;61.30;;;;;;4936525;28;20144;-46
2022/08/11 10:47:35;;;;;;;9.82;0.85;;;28.80;60.30;;;;;;4989820;28;20042;-45
2022/08/11 10:58:48;;;;;;;5.60;0.50;;;29.00;59.90;;;;;;5090315;28;20123;-47
2022/08/11 11:01:29;;;;;;;2.47;0.40;;;29.00;59.90;;;;;;5079770;28;20098;-48
2022/08/11 11:03:59;;;;;;;6.07;0.30;;;29.10;58.60;;;;;;5054605;28;20036;-47
2022/08/11 11:07:02;;;;;;;5.38;0.30;;;29.20;59.10;;;;;;5073000;28;20028;-47
2022/08/11 11:09:49;;;;;;;1.83;0.50;;;29.20;58.40;;;;;;5056361;28;20036;-47
2022/08/11 11:18:00;;;;;;;;;;;29.40;58.70;;;;;;5073343;28;20041;-49
2022/08/11 11:20:44;;;;;;;3.45;0.30;;;29.40;57.10;;;;;;5075630;28;19962;-46
2022/08/11 11:23:15;;;;;;;3.28;0.30;;;29.40;56.30;;;;;;5072482;28;20058;-47
2022/08/11 11:26:13;;;;;;;2.00;0.47;;;29.50;57.40;;;;;;5085305;28;20040;-46
2022/08/11 11:28:58;;;;;;;1.23;0.35;;;29.50;56.50;;;;;;5092877;28;20451;-46
2022/08/11 11:31:43;;;;;;;2.90;0.30;;;29.60;56.30;;;;;;5091422;28;20042;-51
2022/08/11 11:34:22;;;;;;;3.63;0.35;;;29.70;56.00;;;;;;5092518;28;20405;-49
2022/08/11 11:36:53;;;;;;;2.72;0.40;;;29.80;55.90;;;;;;5073356;28;20107;-49
2022/08/11 11:39:21;;;;;;;1.15;0.30;;;29.90;55.30;;;;;;5071082;28;20036;-48
2022/08/11 11:41:54;;;;;;;1.95;0.30;;;29.90;55.40;;;;;;5086106;28;20485;-49
2022/08/11 11:44:24;;;;;;;3.13;0.40;;;30.00;54.60;;;;;;5092272;28;20044;-49
2022/08/11 11:46:51;;;;;;;2.58;0.40;;;30.00;55.80;;;;;;5092105;28;20032;-51
2022/08/11 11:49:20;;;;;;;1.27;0.20;;;30.00;53.80;;;;;;5092626;28;20370;-49
2022/08/11 11:51:47;;;;;;;0.73;0.25;;;29.90;53.00;;;;;;5088636;28;20560;-50
2022/08/11 11:54:15;;;;;;;2.08;0.28;;;30.00;54.40;;;;;;5092126;28;20751;-49
2022/08/11 11:56:42;;;;;;;2.58;0.28;;;30.00;53.80;;;;;;5084217;28;20028;-49
2022/08/11 12:01:54;;;;;;;1.23;0.55;;;30.10;53.00;;;;;;5081933;28;20109;-50
2022/08/11 12:04:21;;;;;;;1.45;0.40;;;30.10;53.60;;;;;;5081423;28;20036;-50
2022/08/11 12:06:48;;;;;;;4.90;0.38;;;30.10;53.70;;;;;;5081245;28;20058;-50
2022/08/11 12:09:17;;;;;;;3.05;0.60;;;30.20;55.10;;;;;;5080060;28;20060;-49
2022/08/11 12:14:28;;;;;;;3.97;0.25;;;30.30;53.20;;;;;;5081507;28;20044;-49
2022/08/11 12:16:56;;;;;;;1.70;0.20;;;30.30;52.50;;;;;;5074520;28;20060;-50
2022/08/11 12:19:27;;;;;;;3.35;0.25;;;30.40;51.80;;;;;;5054202;28;20085;-49
2022/08/11 12:27:26;;;;;;;2.47;0.20;;;30.50;52.80;;;;;;5071105;28;20048;-49
2022/08/11 12:30:11;;;;;;;3.65;0.40;;;30.50;51.30;;;;;;5072068;28;20044;-49
2022/08/11 12:32:38;;;;;;;2.40;0.20;;;30.50;52.00;;;;;;5076697;28;20044;-51
2022/08/11 12:35:05;;;;;;;1.63;0.20;;;30.50;52.80;;;;;;5091643;28;20063;-49
2022/08/11 12:37:42;;;;;;;0.65;0.20;;;30.50;52.20;;;;;;5091014;28;20047;-49
2022/08/11 12:45:47;;;;;;;2.42;0.22;;;30.50;50.70;;;;;;5071116;28;20119;-49
2022/08/11 12:53:57;;;;;;;0.60;0.10;;;30.50;50.80;;;;;;5090752;28;20051;-49
2022/08/11 13:04:50;;;;;;;1.27;0.30;;;30.80;49.30;;;;;;5070166;28;20135;-49
2022/08/11 13:07:16;;;;;;;1.83;0.20;;;30.80;50.00;;;;;;5070857;28;20078;-51
2022/08/11 13:09:44;;;;;;;0.75;0.10;;;30.80;49.80;;;;;;5089123;28;20106;-49
2022/08/11 13:14:55;;;;;;;1.63;0.13;;;30.90;51.00;;;;;;5090601;28;20520;-51
2022/08/11 13:17:23;;;;;;;0.70;0.17;;;31.00;49.70;;;;;;5072566;28;20039;-50
2022/08/11 13:19:50;;;;;;;5.00;0.20;;;30.90;49.90;;;;;;5056170;28;20079;-50
2022/08/11 13:22:23;;;;;;;2.20;0.20;;;31.00;51.10;;;;;;5070760;28;20048;-51
2022/08/11 13:24:50;;;;;;;6.28;0.20;;;30.90;51.20;;;;;;5052347;28;20119;-51
2022/08/11 13:27:18;;;;;;;0.85;0.20;;;30.90;50.70;;;;;;5070400;28;20389;-49
2022/08/11 13:29:45;;;;;;;0.45;0.20;;;30.90;52.00;;;;;;5071498;28;20082;-50
2022/08/11 13:32:12;;;;;;;0.80;0.30;;;30.90;51.20;;;;;;5052591;28;20052;-50
2022/08/11 13:34:41;;;;;;;2.00;0.20;;;30.80;49.50;;;;;;5082479;28;20044;-49
2022/08/11 13:37:10;;;;;;;2.40;0.45;;;30.80;49.70;;;;;;5091162;28;20047;-50
2022/08/11 13:39:36;;;;;;;2.95;0.20;;;30.80;50.40;;;;;;5089226;28;20515;-49
2022/08/11 13:42:04;;;;;;;2.75;0.22;;;30.80;49.80;;;;;;5072416;28;20122;-50
2022/08/11 13:44:34;;;;;;;3.40;0.30;;;30.70;48.80;;;;;;5090048;28;20042;-50
2022/08/11 13:47:03;;;;;;;0.80;0.10;;;30.70;49.90;;;;;;5090271;28;20131;-49
2022/08/11 13:49:31;;;;;;;6.70;0.30;;;30.70;51.00;;;;;;5090646;28;20047;-49
2022/08/11 13:51:58;;;;;;;2.83;0.38;;;30.80;49.90;;;;;;5070281;28;20032;-49
2022/08/11 13:54:30;;;;;;;1.63;0.20;;;30.90;49.10;;;;;;5070227;28;20036;-51
2022/08/11 13:56:59;;;;;;;2.08;0.22;;;30.90;49.20;;;;;;5069643;28;20082;-49
2022/08/11 13:59:26;;;;;;;0.45;0.10;;;30.90;50.00;;;;;;5052030;28;20048;-49
2022/08/11 14:01:59;;;;;;;3.03;0.30;;;30.90;49.10;;;;;;5070809;28;20395;-51
2022/08/11 14:04:27;;;;;;;3.70;0.20;;;30.90;48.50;;;;;;5069811;28;20098;-49
2022/08/11 14:06:58;;;;;;;6.95;0.20;;;30.90;49.10;;;;;;5069899;28;20375;-53
2022/08/11 14:09:26;;;;;;;1.52;0.20;;;30.90;49.00;;;;;;5069423;28;20040;-51
2022/08/11 14:14:58;;;;;;;12.85;0.38;;;31.00;48.60;;;;;;5069568;28;20040;-49
2022/08/11 14:17:23;;;;;;;1.45;0.17;;;31.00;49.40;;;;;;5069735;28;20047;-49
2022/08/11 14:19:52;;;;;;;2.38;0.30;;;31.00;49.50;;;;;;5069518;28;20111;-49
2022/08/11 14:22:20;;;;;;;5.68;0.75;;;31.10;49.60;;;;;;5071461;28;20049;-54
2022/08/11 14:24:50;;;;;;;2.83;0.20;;;31.10;49.10;;;;;;5069422;28;20086;-55
2022/08/11 14:27:16;;;;;;;8.20;0.30;;;31.20;50.30;;;;;;5069864;28;20064;-53
2022/08/11 14:29:44;;;;;;;1.95;0.20;;;31.20;50.30;;;;;;5069982;28;20032;-52
2022/08/11 14:32:12;;;;;;;1.48;0.20;;;31.30;50.00;;;;;;5072051;28;20395;-54
2022/08/11 14:34:43;;;;;;;2.42;0.20;;;31.30;49.10;;;;;;5071927;28;20035;-53
2022/08/11 14:37:11;;;;;;;2.05;0.30;;;31.30;49.90;;;;;;5089524;28;20101;-53
2022/08/11 14:39:45;;;;;;;4.13;0.30;;;31.30;48.40;;;;;;5090238;28;20124;-54
2022/08/11 14:47:56;;;;;;;18.33;0.50;;;31.30;48.70;;;;;;5069794;28;20048;-56
2022/08/11 14:50:25;;;;;;;25.63;1.42;;;31.30;48.60;;;;;;5069634;28;20044;-55
2022/08/11 14:53:03;;;;;;;2.95;0.20;;;31.30;49.00;;;;;;5071769;28;20024;-53
2022/08/11 14:58:20;;;;;;;2.20;0.20;;;31.20;49.00;;;;;;5072134;28;20040;-51
2022/08/11 15:00:50;;;;;;;1.88;0.20;;;31.30;48.50;;;;;;5052184;28;20090;-55
2022/08/11 15:03:16;;;;;;;1.42;0.20;;;31.20;48.10;;;;;;5076184;28;20028;-55
2022/08/11 15:05:48;;;;;;;3.88;0.20;;;31.20;48.50;;;;;;5089311;28;20451;-53
2022/08/11 15:08:15;;;;;;;3.35;0.20;;;31.20;47.90;;;;;;5089785;28;20170;-54
2022/08/11 15:10:41;;;;;;;3.15;0.30;;;31.20;49.00;;;;;;5084095;28;20032;-54
2022/08/11 15:13:09;;;;;;;3.80;0.20;;;31.10;48.60;;;;;;5070265;28;20490;-55
2022/08/11 15:18:23;;;;;;;1.70;0.20;;;31.00;48.20;;;;;;5093200;28;20159;-54
2022/08/11 15:37:25;;;;;;;1.95;0.30;;;30.60;47.50;;;;;;5083497;28;20036;-54
2022/08/11 15:37:43;;;;;;;1.30;0.20;;;30.50;48.60;;;;;;5072398;28;20513;-52
2022/08/11 15:45:53;;;;;;;2.35;0.10;;;30.40;48.00;;;;;;5084336;28;20072;-52
2022/08/11 15:48:28;;;;;;;0.80;0.20;;;30.40;48.20;;;;;;5072541;28;20131;-51
2022/08/11 15:50:59;;;;;;;3.50;0.35;;;30.30;48.20;;;;;;5079950;28;20032;-52
2022/08/11 15:53:36;;;;;;;4.68;0.20;;;30.30;49.10;;;;;;5092218;28;20040;-50
2022/08/11 15:56:03;;;;;;;1.80;0.20;;;30.20;48.30;;;;;;5091200;28;20043;-50
2022/08/11 16:04:20;;;;;;;2.13;0.28;;;30.10;48.30;;;;;;5057388;28;20516;-49
2022/08/11 16:07:09;;;;;;;16.05;0.63;;;30.10;49.30;;;;;;5079694;28;20032;-51
2022/08/11 16:09:40;;;;;;;3.60;0.50;;;30.00;48.90;;;;;;5072292;28;20040;-51
2022/08/11 16:12:11;;;;;;;2.25;0.25;;;30.00;49.30;;;;;;5067901;28;20096;-53
2022/08/11 16:17:29;;;;;;;2.15;0.20;;;30.00;48.60;;;;;;5075115;28;20056;-51
2022/08/11 16:19:56;;;;;;;3.03;0.55;;;30.00;49.50;;;;;;5053715;28;20138;-52
2022/08/11 16:22:37;;;;;;;1454.60;136.88;;;29.90;50.30;;;;;;5087171;28;20040;-52
2022/08/11 16:25:06;;;;;;;3.03;0.30;;;29.90;49.70;;;;;;5091414;28;20413;-53
2022/08/11 16:27:35;;;;;;;4.47;0.20;;;29.90;49.40;;;;;;5075618;28;20265;-55
2022/08/11 16:30:04;;;;;;;2.33;0.22;;;29.80;48.80;;;;;;5077221;28;20559;-52
2022/08/11 16:32:30;;;;;;;1.20;0.15;;;29.80;49.40;;;;;;5091634;28;20072;-53
2022/08/11 16:40:49;;;;;;;;;;;29.70;50.50;;;;;;5092301;28;20401;-51
2022/08/11 16:46:58;;;;;;;4.60;0.20;;;29.70;51.50;;;;;;5091328;28;20036;-55
2022/08/11 16:49:04;;;;;;;1.80;0.20;;;29.70;51.40;;;;;;5088611;28;20051;-51
2022/08/11 16:51:31;;;;;;;1.50;0.30;;;29.60;50.40;;;;;;5091550;28;20036;-55
2022/08/11 16:53:56;;;;;;;2.33;0.65;;;29.60;50.60;;;;;;5090771;28;20153;-54
2022/08/11 16:56:26;;;;;;;2.00;0.30;;;29.60;50.70;;;;;;5091452;28;20043;-54
2022/08/11 16:59:13;;;;;;;2.10;0.30;;;29.60;51.10;;;;;;5091819;28;20036;-52
2022/08/11 17:01:43;;;;;;;1.73;0.20;;;29.60;51.20;;;;;;5091985;28;20169;-51
2022/08/11 17:18:10;;;;;;;5.90;0.40;;;29.70;52.70;;;;;;5090947;28;20047;-55
2022/08/11 17:20:37;;;;;;;2.70;0.47;;;29.70;52.50;;;;;;5080768;28;20452;-51
2022/08/11 17:25:49;;;;;;;8.77;0.50;;;29.60;53.40;;;;;;5078140;28;20032;-55
2022/08/11 17:28:17;;;;;;;2.60;0.30;;;29.60;52.70;;;;;;5090747;28;20036;-52
2022/08/11 17:36:14;;;;;;;;;;;29.30;52.90;;;;;;5084528;28;20513;-53
2022/08/11 17:38:42;;;;;;;6.63;0.40;;;29.20;53.10;;;;;;5087719;28;19923;-54
2022/08/11 17:49:25;;;;;;;2.55;0.40;;;28.80;53.70;;;;;;5089146;28;20119;-53
2022/08/11 18:00:08;;;;;;;3.20;0.75;;;28.50;53.90;;;;;;5088516;28;20489;-54
2022/08/11 18:05:27;;;;;;;10.18;1.23;;;28.40;53.70;;;;;;5086028;28;20036;-50
